Tunis, Tunisia
Current Conditions -  °F | °C
As of 9:00 AM on Sunday 26 Oct 2014 (Local Time) from DTTA Reporting Station
Scattered Clouds Scattered Clouds  
Wind Chill: 70°   Ceiling: Unl
Heat Index: 70°   Visibility: 6mi
Dew Point: 61°   Wind: 6mph
Humidity: 73%   Direction: 240°WSW
Pressure: 30.09"   Gusts: NA
Location:  36.84°N, 10.22°E
Report Text: DTTA 260800Z 24005KT 9999 SCT026TCU 21/16 Q1019
Loading
Personal Weather Stations






























Interactive Weather Map
Tropical Storm Tracking
New forecast layout! Learn more

10-Day Weather Forecast

Advertisements
Track Severe Weather on mobile